Time;durP1;ratioP1;P1;durP2;ratioP2;P2;SDS_P1;SDS_P2;PMS_P1;PMS_P2;Temp;Humidity;BMP_temperature;BMP_pressure;BME280_temperature;BME280_humidity;BME280_pressure;Samples;Min_cycle;Max_cycle;Signal;HPM_P1;HPM_P2
2022/09/02 00:00:19;;;;;;;2.10;0.70;;;16.10;51.50;;;;;;4987100;28;20042;-67
2022/09/02 00:02:48;;;;;;;1.38;0.80;;;16.10;51.60;;;;;;4994069;28;20050;-67
2022/09/02 00:05:14;;;;;;;3.70;1.02;;;16.10;51.60;;;;;;4963231;28;20100;-67
2022/09/02 00:07:39;;;;;;;2.38;0.70;;;16.10;51.50;;;;;;4970128;28;20050;-67
2022/09/02 00:10:05;;;;;;;2.28;0.70;;;16.10;51.50;;;;;;4994854;28;20085;-67
2022/09/02 00:12:31;;;;;;;6.07;1.05;;;16.00;51.40;;;;;;4986806;28;20039;-67
2022/09/02 00:14:56;;;;;;;1.90;0.80;;;16.00;51.50;;;;;;5008602;28;20047;-67
2022/09/02 00:17:22;;;;;;;1.38;0.80;;;16.00;51.50;;;;;;4985254;28;20038;-67
2022/09/02 00:19:48;;;;;;;2.20;0.80;;;16.00;51.40;;;;;;4990126;28;20054;-67
2022/09/02 00:22:13;;;;;;;3.45;1.10;;;15.90;51.30;;;;;;5010359;28;20042;-67
2022/09/02 00:24:39;;;;;;;2.03;1.10;;;15.90;51.40;;;;;;4989636;28;20129;-67
2022/09/02 00:27:05;;;;;;;1.48;0.77;;;15.90;51.40;;;;;;4981101;28;20050;-67
2022/09/02 00:29:31;;;;;;;1.10;0.88;;;15.80;51.40;;;;;;4992239;28;20059;-67
2022/09/02 00:31:57;;;;;;;3.88;0.93;;;15.80;51.30;;;;;;4977633;28;20065;-67
2022/09/02 00:34:24;;;;;;;1.70;0.95;;;15.80;51.40;;;;;;4992191;28;20518;-67
2022/09/02 00:36:50;;;;;;;1.67;0.75;;;15.80;51.40;;;;;;4983151;28;20034;-67
2022/09/02 00:39:16;;;;;;;3.35;0.90;;;15.80;51.40;;;;;;4994031;28;20521;-67
2022/09/02 00:41:42;;;;;;;2.85;1.00;;;15.70;51.40;;;;;;4978499;28;20050;-67
2022/09/02 00:44:11;;;;;;;2.13;1.00;;;15.70;51.40;;;;;;4992900;28;20109;-67
2022/09/02 00:46:37;;;;;;;3.63;0.98;;;15.70;51.50;;;;;;4984179;28;20407;-67
2022/09/02 00:49:07;;;;;;;3.80;1.48;;;15.70;51.50;;;;;;4991705;28;20043;-67
2022/09/02 00:51:47;;;;;;;4.32;0.90;;;15.60;51.60;;;;;;4974574;28;20045;-67
2022/09/02 00:54:14;;;;;;;2.42;0.80;;;15.60;51.60;;;;;;4979734;28;20042;-67
2022/09/02 00:56:43;;;;;;;3.22;0.80;;;15.60;51.70;;;;;;4992401;28;20406;-67
2022/09/02 00:59:14;;;;;;;1.95;0.80;;;15.50;51.70;;;;;;4965814;28;20125;-67
2022/09/02 01:01:40;;;;;;;1.98;0.90;;;15.50;51.80;;;;;;4977014;28;20043;-67
2022/09/02 01:04:06;;;;;;;1.92;0.73;;;15.40;51.80;;;;;;4985301;28;20038;-67
2022/09/02 01:06:32;;;;;;;0.82;0.68;;;15.40;52.20;;;;;;4983420;28;20487;-67
2022/09/02 01:09:12;;;;;;;2.42;0.93;;;15.40;52.00;;;;;;4974235;28;20047;-67
2022/09/02 01:11:42;;;;;;;2.85;1.05;;;15.30;52.10;;;;;;4978697;28;20038;-67
2022/09/02 01:14:11;;;;;;;3.30;0.82;;;15.30;52.20;;;;;;4989588;28;20074;-67
2022/09/02 01:16:44;;;;;;;1.33;0.85;;;15.30;52.20;;;;;;4987062;28;20042;-67
2022/09/02 01:19:35;;;;;;;5.78;2.03;;;15.20;52.30;;;;;;4980549;28;20097;-67
2022/09/02 01:22:04;;;;;;;3.22;0.80;;;15.10;52.30;;;;;;4977596;28;20050;-67
2022/09/02 01:24:31;;;;;;;2.97;0.80;;;15.10;52.30;;;;;;4986616;28;20043;-67
2022/09/02 01:26:58;;;;;;;3.42;0.90;;;15.10;52.40;;;;;;4977706;28;20046;-67
2022/09/02 01:29:25;;;;;;;4.43;1.10;;;15.10;52.50;;;;;;4980320;28;20030;-67
2022/09/02 01:31:51;;;;;;;1.45;0.60;;;15.00;52.60;;;;;;4974996;28;20053;-67
2022/09/02 01:34:17;;;;;;;1.63;0.70;;;15.00;52.70;;;;;;4992590;28;20046;-67
2022/09/02 01:36:43;;;;;;;1.88;1.10;;;15.00;52.80;;;;;;4991894;28;20054;-67
2022/09/02 01:39:10;;;;;;;1.23;0.80;;;14.90;52.80;;;;;;4988913;28;20050;-67
2022/09/02 01:41:36;;;;;;;3.45;1.10;;;14.90;52.90;;;;;;4992530;28;20430;-67
2022/09/02 01:44:04;;;;;;;2.85;0.93;;;14.90;53.00;;;;;;4976623;28;20478;-67
2022/09/02 01:46:31;;;;;;;4.45;1.10;;;14.90;53.00;;;;;;4985339;28;20470;-67
2022/09/02 01:48:56;;;;;;;2.55;0.77;;;14.90;53.00;;;;;;4973209;28;20134;-64
2022/09/02 01:51:22;;;;;;;2.25;0.98;;;14.80;53.00;;;;;;4973403;28;20538;-65
2022/09/02 01:53:48;;;;;;;2.65;1.00;;;14.80;53.10;;;;;;4986154;28;20131;-64
2022/09/02 01:56:15;;;;;;;1.90;0.88;;;14.90;53.10;;;;;;4990402;28;20034;-64
2022/09/02 01:58:41;;;;;;;2.22;0.70;;;14.80;53.10;;;;;;4973348;28;20038;-64
2022/09/02 02:01:07;;;;;;;1.63;0.85;;;14.80;53.10;;;;;;4989680;28;20092;-64
2022/09/02 02:03:34;;;;;;;2.88;0.80;;;14.80;53.20;;;;;;4988687;28;20458;-64
2022/09/02 02:06:01;;;;;;;1.48;0.88;;;14.80;53.30;;;;;;5006216;28;20415;-65
2022/09/02 02:08:27;;;;;;;1.77;0.90;;;14.70;53.40;;;;;;4964443;28;20101;-64
2022/09/02 02:10:52;;;;;;;1.08;0.88;;;14.70;53.40;;;;;;4986866;28;20410;-64
2022/09/02 02:13:18;;;;;;;2.38;1.10;;;14.70;53.80;;;;;;4981478;28;20043;-64
2022/09/02 02:15:44;;;;;;;2.47;0.80;;;14.60;53.50;;;;;;4983433;28;20030;-64
2022/09/02 02:18:10;;;;;;;2.03;1.10;;;14.60;53.60;;;;;;4988132;28;20074;-64
2022/09/02 02:20:37;;;;;;;1.58;1.08;;;14.50;53.70;;;;;;5007983;28;20046;-65
2022/09/02 02:23:04;;;;;;;2.80;0.93;;;14.50;53.80;;;;;;4985573;28;20390;-64
2022/09/02 02:25:30;;;;;;;1.60;0.60;;;14.50;53.90;;;;;;4984114;28;20038;-64
2022/09/02 02:27:56;;;;;;;4.78;1.20;;;14.50;54.00;;;;;;4993958;28;20050;-64
2022/09/02 02:30:22;;;;;;;2.97;1.33;;;14.50;54.10;;;;;;4983831;28;20049;-64
2022/09/02 02:32:49;;;;;;;2.20;0.90;;;14.40;54.10;;;;;;4979944;28;20132;-64
2022/09/02 02:35:16;;;;;;;1.35;0.90;;;14.40;54.20;;;;;;4993222;28;20026;-64
2022/09/02 02:37:42;;;;;;;2.95;0.90;;;14.30;54.30;;;;;;4964881;28;20043;-64
2022/09/02 02:40:09;;;;;;;3.22;1.15;;;14.30;54.40;;;;;;4977648;28;20062;-64
2022/09/02 02:42:35;;;;;;;1.60;0.80;;;14.30;54.50;;;;;;4995181;28;20077;-64
2022/09/02 02:45:01;;;;;;;1.83;1.10;;;14.30;54.50;;;;;;4975683;28;20047;-64
2022/09/02 02:47:27;;;;;;;2.33;1.00;;;14.30;54.60;;;;;;4993555;28;20071;-64
2022/09/02 02:49:53;;;;;;;1.02;0.80;;;14.20;54.60;;;;;;4995970;28;20070;-64
2022/09/02 02:52:19;;;;;;;2.45;1.33;;;14.20;54.60;;;;;;4994221;28;20109;-64
2022/09/02 02:54:45;;;;;;;1.67;0.95;;;14.20;54.70;;;;;;4977743;28;20038;-64
2022/09/02 02:57:12;;;;;;;2.45;1.20;;;14.20;54.80;;;;;;4985615;28;20049;-64
2022/09/02 02:59:38;;;;;;;2.05;1.10;;;14.10;54.90;;;;;;4992272;28;20053;-64
2022/09/02 03:02:05;;;;;;;2.65;1.13;;;14.10;54.90;;;;;;4994475;28;20043;-64
2022/09/02 03:04:32;;;;;;;1.83;0.93;;;14.10;55.00;;;;;;4995601;28;20068;-64
2022/09/02 03:06:58;;;;;;;2.28;1.33;;;14.10;55.00;;;;;;4990965;28;20038;-64
2022/09/02 03:09:24;;;;;;;2.65;1.20;;;14.10;55.10;;;;;;4977122;28;20035;-64
2022/09/02 03:11:50;;;;;;;5.45;1.15;;;14.00;55.10;;;;;;4993205;28;20046;-64
2022/09/02 03:14:17;;;;;;;1.60;0.82;;;14.00;55.20;;;;;;4980137;28;20043;-64
2022/09/02 03:16:43;;;;;;;3.72;1.17;;;14.00;55.20;;;;;;4986894;28;20042;-64
2022/09/02 03:19:12;;;;;;;4.65;1.38;;;14.00;55.20;;;;;;4965270;28;20049;-64
2022/09/02 03:21:38;;;;;;;1.67;0.88;;;14.00;55.30;;;;;;4979741;28;20042;-64
2022/09/02 03:24:04;;;;;;;1.75;0.98;;;14.00;55.40;;;;;;4993365;28;20057;-64
2022/09/02 03:26:30;;;;;;;1.60;0.80;;;13.90;55.50;;;;;;4988756;28;20042;-64
2022/09/02 03:28:56;;;;;;;4.22;1.33;;;13.90;55.50;;;;;;4994270;28;20081;-64
2022/09/02 03:31:23;;;;;;;2.70;0.80;;;13.90;55.90;;;;;;4973994;28;20043;-64
2022/09/02 03:33:50;;;;;;;3.78;1.10;;;13.80;55.70;;;;;;4986611;28;20133;-64
2022/09/02 03:36:37;;;;;;;1.05;0.85;;;13.80;55.70;;;;;;4989436;28;20043;-64
2022/09/02 03:39:05;;;;;;;2.38;0.90;;;13.80;55.80;;;;;;4976907;28;20058;-64
2022/09/02 03:41:31;;;;;;;2.13;1.10;;;13.70;55.90;;;;;;4982115;28;20055;-64
2022/09/02 03:43:57;;;;;;;2.90;1.20;;;13.70;56.00;;;;;;4981972;28;20049;-64
2022/09/02 03:46:23;;;;;;;2.70;1.15;;;13.70;56.20;;;;;;4994662;28;20046;-64
2022/09/02 03:48:50;;;;;;;2.90;1.13;;;13.70;56.20;;;;;;4991870;28;20042;-64
2022/09/02 03:51:20;;;;;;;4.20;1.20;;;13.60;56.30;;;;;;4992911;28;20046;-64
2022/09/02 03:53:46;;;;;;;2.05;1.20;;;13.60;56.30;;;;;;4987706;28;20053;-64
2022/09/02 03:56:14;;;;;;;3.38;1.20;;;13.60;56.40;;;;;;4981912;28;20047;-64
2022/09/02 03:58:41;;;;;;;4.20;1.13;;;13.60;56.50;;;;;;4982822;28;20041;-64
2022/09/02 04:01:11;;;;;;;1.52;1.13;;;13.60;56.90;;;;;;4977648;28;20108;-64
2022/09/02 04:03:37;;;;;;;1.75;1.08;;;13.50;56.60;;;;;;4981393;28;20038;-64
2022/09/02 04:06:03;;;;;;;1.65;1.10;;;13.50;56.80;;;;;;4993954;28;20569;-64
2022/09/02 04:08:28;;;;;;;2.22;0.90;;;13.50;56.80;;;;;;4990701;28;20462;-64
2022/09/02 04:10:55;;;;;;;1.42;1.00;;;13.50;56.90;;;;;;4977513;28;20402;-64
2022/09/02 04:13:21;;;;;;;2.10;1.05;;;13.40;57.00;;;;;;4976904;28;20058;-64
2022/09/02 04:15:48;;;;;;;2.67;1.23;;;13.40;57.00;;;;;;4983032;28;20081;-64
2022/09/02 04:18:16;;;;;;;2.15;1.27;;;13.40;57.00;;;;;;4985093;28;20054;-64
2022/09/02 04:20:43;;;;;;;1.48;1.10;;;13.30;57.10;;;;;;4993263;28;20046;-64
2022/09/02 04:23:09;;;;;;;1.60;1.10;;;13.40;57.20;;;;;;4987190;28;20165;-64
2022/09/02 04:25:39;;;;;;;2.72;1.60;;;13.30;57.20;;;;;;4959497;28;20035;-64
2022/09/02 04:28:05;;;;;;;1.58;1.08;;;13.40;57.30;;;;;;4989732;28;20061;-64
2022/09/02 04:30:31;;;;;;;2.08;1.23;;;13.30;57.30;;;;;;4990580;28;20041;-64
2022/09/02 04:32:56;;;;;;;2.60;1.15;;;13.30;57.40;;;;;;4989295;28;20080;-64
2022/09/02 04:35:22;;;;;;;2.75;1.27;;;13.30;57.50;;;;;;4991815;28;20038;-64
2022/09/02 04:37:48;;;;;;;3.45;1.42;;;13.40;57.50;;;;;;5009349;28;20104;-64
2022/09/02 04:40:14;;;;;;;6.13;1.23;;;13.30;57.50;;;;;;4991540;28;20050;-64
2022/09/02 04:42:40;;;;;;;4.57;1.40;;;13.30;57.50;;;;;;4983064;28;20131;-64
2022/09/02 04:45:06;;;;;;;2.05;0.90;;;13.30;57.60;;;;;;4983529;28;20085;-64
2022/09/02 04:47:32;;;;;;;2.25;1.30;;;13.30;57.70;;;;;;4993635;28;20394;-64
2022/09/02 04:49:57;;;;;;;1.38;0.93;;;13.20;57.80;;;;;;4976681;28;20073;-64
2022/09/02 04:52:24;;;;;;;2.55;1.15;;;13.20;57.70;;;;;;4987806;28;20086;-64
2022/09/02 04:54:49;;;;;;;3.95;1.30;;;13.20;57.80;;;;;;4957952;28;20090;-64
2022/09/02 04:57:15;;;;;;;3.58;1.20;;;13.20;57.90;;;;;;4985200;28;20054;-65
2022/09/02 04:59:41;;;;;;;3.10;1.55;;;13.20;58.00;;;;;;4989390;28;20151;-64
2022/09/02 05:02:07;;;;;;;2.33;1.10;;;13.10;58.00;;;;;;4988840;28;20077;-64
2022/09/02 05:04:33;;;;;;;2.60;1.40;;;13.10;58.10;;;;;;4992035;28;20137;-65
2022/09/02 05:07:00;;;;;;;3.20;1.60;;;13.10;58.10;;;;;;4986469;28;20517;-64
2022/09/02 05:09:30;;;;;;;3.33;1.33;;;13.10;58.20;;;;;;4975608;28;20503;-64
2022/09/02 05:11:56;;;;;;;1.85;1.20;;;13.10;58.30;;;;;;4992451;28;20053;-64
2022/09/02 05:14:23;;;;;;;2.17;1.30;;;13.10;58.40;;;;;;4977681;28;20121;-64
2022/09/02 05:16:52;;;;;;;3.13;1.30;;;13.10;58.40;;;;;;4965402;28;20043;-64
2022/09/02 05:19:20;;;;;;;2.40;1.35;;;13.10;58.40;;;;;;4984792;28;20498;-64
2022/09/02 05:21:46;;;;;;;3.42;1.40;;;13.10;58.40;;;;;;4992801;28;20097;-64
2022/09/02 05:24:13;;;;;;;4.20;1.30;;;13.10;58.60;;;;;;4974561;28;21588;-64
2022/09/02 05:26:41;;;;;;;2.80;1.67;;;13.10;58.50;;;;;;4987682;28;20051;-65
2022/09/02 05:29:07;;;;;;;6.22;1.63;;;13.10;58.40;;;;;;4986019;28;20080;-64
2022/09/02 05:31:33;;;;;;;3.80;1.65;;;13.10;58.40;;;;;;4986426;28;20129;-64
2022/09/02 05:33:59;;;;;;;6.43;1.45;;;13.20;58.90;;;;;;4991898;28;20042;-64
2022/09/02 05:36:24;;;;;;;2.97;1.10;;;13.20;58.60;;;;;;4988234;28;20034;-64
2022/09/02 05:38:50;;;;;;;1.80;1.33;;;13.20;58.60;;;;;;4980301;28;20506;-64
2022/09/02 05:41:22;;;;;;;1.83;1.20;;;13.20;58.50;;;;;;4988810;28;20054;-64
2022/09/02 05:43:49;;;;;;;1.80;1.30;;;13.30;58.60;;;;;;4982186;28;20128;-64
2022/09/02 05:46:17;;;;;;;4.03;1.80;;;13.30;58.60;;;;;;4968543;28;20053;-64
2022/09/02 05:51:29;;;;;;;3.90;1.30;;;13.40;58.50;;;;;;4989654;28;20093;-64
2022/09/02 05:53:58;;;;;;;1.80;1.15;;;13.40;58.50;;;;;;4996474;28;20054;-64
2022/09/02 05:56:24;;;;;;;2.30;1.63;;;13.50;58.50;;;;;;4984447;28;20042;-64
2022/09/02 05:58:50;;;;;;;1.70;1.10;;;13.50;58.50;;;;;;4974241;28;20384;-64
2022/09/02 06:01:18;;;;;;;7.18;1.48;;;13.50;58.50;;;;;;4985456;28;20050;-64
2022/09/02 06:03:44;;;;;;;8.82;1.55;;;13.60;58.60;;;;;;4978781;28;20108;-64
2022/09/02 06:06:11;;;;;;;11.93;1.63;;;13.60;58.50;;;;;;4982033;28;20058;-64
2022/09/02 06:08:37;;;;;;;5.40;2.05;;;13.70;58.50;;;;;;4968820;28;20453;-64
2022/09/02 06:11:06;;;;;;;5.03;1.50;;;13.80;58.60;;;;;;4991879;28;20129;-64
2022/09/02 06:13:36;;;;;;;2.28;1.20;;;13.90;58.60;;;;;;4979055;28;20141;-64
2022/09/02 06:16:02;;;;;;;2.28;1.10;;;14.10;58.50;;;;;;4987896;28;20141;-64
2022/09/02 06:18:28;;;;;;;3.15;1.70;;;14.30;58.30;;;;;;4981900;28;20054;-64
2022/09/02 06:20:54;;;;;;;1.85;1.20;;;14.50;58.00;;;;;;4992847;28;20501;-64
2022/09/02 06:23:19;;;;;;;3.95;1.60;;;14.70;57.70;;;;;;4980707;28;20070;-64
2022/09/02 06:25:47;;;;;;;2.22;1.10;;;14.90;57.50;;;;;;4975807;28;20076;-64
2022/09/02 06:28:14;;;;;;;4.68;1.23;;;15.10;57.10;;;;;;4991647;28;20042;-64
2022/09/02 06:30:43;;;;;;;2.10;1.20;;;15.30;56.80;;;;;;4985829;28;20042;-64
2022/09/02 06:33:09;;;;;;;3.95;1.45;;;15.50;56.60;;;;;;4981607;28;20081;-64
2022/09/02 06:35:37;;;;;;;4.13;1.20;;;15.70;56.40;;;;;;4977990;28;20038;-64
2022/09/02 06:38:04;;;;;;;4.03;1.20;;;15.90;55.80;;;;;;4974912;28;20038;-64
2022/09/02 06:40:30;;;;;;;3.10;1.35;;;16.10;55.50;;;;;;4982415;28;20074;-64
2022/09/02 06:42:55;;;;;;;5.38;1.27;;;16.30;55.10;;;;;;4984061;28;20418;-64
2022/09/02 06:45:23;;;;;;;3.60;1.85;;;16.40;54.50;;;;;;4981100;28;20046;-64
2022/09/02 06:47:49;;;;;;;3.33;1.05;;;16.50;54.00;;;;;;4985056;28;20051;-64
2022/09/02 06:50:16;;;;;;;3.38;1.30;;;16.70;54.40;;;;;;4991427;28;20482;-65
2022/09/02 06:52:42;;;;;;;3.70;1.17;;;16.90;54.20;;;;;;4987690;28;20038;-64
2022/09/02 06:55:09;;;;;;;2.58;1.00;;;17.10;53.70;;;;;;4991773;28;20069;-64
2022/09/02 06:57:35;;;;;;;2.00;1.02;;;17.30;53.00;;;;;;4968441;28;20125;-64
2022/09/02 07:00:07;;;;;;;2.67;1.10;;;17.50;52.70;;;;;;4973740;28;20047;-65
2022/09/02 07:02:32;;;;;;;1.92;1.20;;;17.70;52.50;;;;;;4957473;28;20057;-65
2022/09/02 07:05:13;;;;;;;1.67;0.90;;;17.90;52.00;;;;;;4978282;28;20046;-65
2022/09/02 07:07:42;;;;;;;3.78;1.20;;;18.10;51.60;;;;;;4989935;28;20053;-65
2022/09/02 07:10:12;;;;;;;1.95;1.00;;;18.20;50.90;;;;;;4994169;28;20041;-65
2022/09/02 07:12:39;;;;;;;2.72;1.13;;;18.40;50.50;;;;;;4995289;28;20042;-65
2022/09/02 07:15:05;;;;;;;2.67;1.10;;;18.50;50.30;;;;;;4993237;28;20050;-65
2022/09/02 07:17:32;;;;;;;2.42;1.02;;;18.60;50.00;;;;;;4991246;28;20113;-65
2022/09/02 07:19:59;;;;;;;3.53;1.25;;;18.70;49.70;;;;;;4978251;28;20077;-65
2022/09/02 07:22:28;;;;;;;3.00;1.00;;;18.70;49.40;;;;;;4986164;28;20070;-65
2022/09/02 07:24:54;;;;;;;3.20;1.10;;;18.90;49.40;;;;;;4984019;28;20059;-65
2022/09/02 07:27:20;;;;;;;1.85;1.17;;;18.90;48.90;;;;;;4992838;28;20038;-65
2022/09/02 07:29:47;;;;;;;4.00;1.10;;;19.00;49.30;;;;;;4996366;28;20049;-65
2022/09/02 07:32:15;;;;;;;5.13;1.25;;;19.10;49.00;;;;;;4995064;28;20390;-65
2022/09/02 07:34:41;;;;;;;3.25;0.95;;;19.10;49.20;;;;;;4988865;28;20557;-65
2022/09/02 07:37:08;;;;;;;2.28;1.30;;;19.20;48.70;;;;;;5000486;28;20142;-65
2022/09/02 07:39:34;;;;;;;4.53;1.10;;;19.20;48.80;;;;;;5011505;28;20058;-66
2022/09/02 07:41:59;;;;;;;2.17;0.93;;;19.30;48.80;;;;;;5009847;28;20050;-66
2022/09/02 07:44:25;;;;;;;3.53;1.20;;;19.40;48.90;;;;;;5014333;28;20405;-66
2022/09/02 07:46:51;;;;;;;3.25;1.00;;;19.40;48.40;;;;;;5015494;28;20172;-64
2022/09/02 07:49:19;;;;;;;4.80;0.90;;;19.50;48.00;;;;;;5014140;28;20135;-64
2022/09/02 07:51:48;;;;;;;2.25;1.00;;;19.60;48.00;;;;;;5014370;28;20621;-64
2022/09/02 07:54:21;;;;;;;4.43;1.10;;;19.60;47.90;;;;;;5012317;28;20038;-64
2022/09/02 07:56:48;;;;;;;2.42;1.10;;;19.60;47.80;;;;;;4990515;28;20490;-64
2022/09/02 07:59:14;;;;;;;3.92;1.25;;;19.70;47.90;;;;;;4976562;28;20082;-64
2022/09/02 08:01:42;;;;;;;4.28;1.27;;;19.70;47.60;;;;;;4975196;28;20461;-64
2022/09/02 08:04:08;;;;;;;1.95;0.77;;;19.70;47.30;;;;;;4984087;28;20112;-64
2022/09/02 08:06:34;;;;;;;3.28;1.10;;;19.80;47.60;;;;;;4994575;28;20097;-64
2022/09/02 08:09:05;;;;;;;4.55;0.95;;;19.90;48.10;;;;;;4995617;28;20050;-64
2022/09/02 08:11:34;;;;;;;3.05;1.38;;;20.00;47.40;;;;;;4994167;28;20034;-64
2022/09/02 08:14:00;;;;;;;2.45;1.27;;;20.10;47.60;;;;;;4995552;28;20038;-64
2022/09/02 08:16:25;;;;;;;4.18;1.38;;;20.20;47.10;;;;;;4990627;28;20402;-64
2022/09/02 08:18:51;;;;;;;2.60;0.90;;;20.40;47.00;;;;;;4990859;28;20041;-64
2022/09/02 08:21:17;;;;;;;7.15;1.20;;;20.50;46.40;;;;;;4994521;28;20042;-66
2022/09/02 08:23:45;;;;;;;4.13;1.27;;;20.60;46.50;;;;;;4995399;28;20494;-66
2022/09/02 08:26:10;;;;;;;3.03;1.25;;;20.70;46.60;;;;;;4986813;28;20043;-66
2022/09/02 08:28:36;;;;;;;4.75;1.20;;;20.90;45.70;;;;;;4974526;28;20050;-67
2022/09/02 08:31:06;;;;;;;4.15;1.13;;;21.00;45.30;;;;;;4975852;28;20053;-67
2022/09/02 08:33:32;;;;;;;2.95;1.23;;;21.00;44.80;;;;;;5002539;28;20035;-67
2022/09/02 08:36:02;;;;;;;4.50;1.50;;;21.10;44.50;;;;;;4995290;28;20037;-68
2022/09/02 08:38:28;;;;;;;3.17;1.10;;;21.20;44.00;;;;;;4993717;28;20077;-68
2022/09/02 08:40:53;;;;;;;3.35;1.20;;;21.40;43.90;;;;;;4993949;28;20383;-68
2022/09/02 08:43:30;;;;;;;2.35;1.25;;;21.40;43.70;;;;;;4993490;28;20065;-68
2022/09/02 08:46:01;;;;;;;4.90;1.10;;;21.50;43.30;;;;;;4987418;28;20108;-68
2022/09/02 08:48:40;;;;;;;5.65;1.40;;;21.60;43.70;;;;;;4975693;28;20054;-68
2022/09/02 08:51:15;;;;;;;4.55;1.40;;;21.70;42.70;;;;;;4975931;28;20077;-68
2022/09/02 08:54:01;;;;;;;4.70;1.40;;;21.80;42.50;;;;;;4974107;28;20486;-68
2022/09/02 08:56:27;;;;;;;3.58;1.10;;;21.90;42.40;;;;;;4974316;28;20051;-68
2022/09/02 08:58:52;;;;;;;6.15;1.60;;;21.90;42.70;;;;;;4981286;28;20541;-68
2022/09/02 09:01:37;;;;;;;4.90;1.20;;;22.00;42.50;;;;;;4988131;28;20045;-66
2022/09/02 09:04:14;;;;;;;3.63;1.25;;;22.10;42.20;;;;;;4986690;28;20042;-68
2022/09/02 09:07:17;;;;;;;3.00;1.00;;;22.20;41.80;;;;;;4985741;28;20074;-68
2022/09/02 09:10:05;;;;;;;4.03;1.00;;;22.30;41.40;;;;;;4990783;28;20054;-68
2022/09/02 09:12:39;;;;;;;4.28;1.35;;;22.40;41.50;;;;;;4993043;28;20096;-68
2022/09/02 09:15:28;;;;;;;3.88;1.10;;;22.40;41.60;;;;;;4978078;28;20038;-68
2022/09/02 09:18:01;;;;;;;2.60;1.13;;;22.50;41.60;;;;;;4975262;28;20065;-68
2022/09/02 09:20:32;;;;;;;2.83;0.95;;;22.60;41.30;;;;;;4973770;28;20054;-68
2022/09/02 09:22:59;;;;;;;3.22;1.05;;;22.80;41.20;;;;;;4987964;28;20042;-68
2022/09/02 09:25:30;;;;;;;4.78;1.08;;;22.80;40.70;;;;;;4987509;28;20067;-68
2022/09/02 09:28:00;;;;;;;3.92;1.10;;;22.90;40.30;;;;;;4975707;28;20089;-68
2022/09/02 09:30:27;;;;;;;3.15;1.17;;;23.00;40.10;;;;;;4987867;28;20234;-68
2022/09/02 09:33:01;;;;;;;8.15;1.35;;;23.00;39.80;;;;;;4990203;28;20042;-68
2022/09/02 09:35:47;;;;;;;4.30;1.10;;;23.10;39.50;;;;;;4992700;28;20042;-66
2022/09/02 09:38:14;;;;;;;6.47;0.95;;;23.20;38.90;;;;;;4987185;28;20168;-68
2022/09/02 09:40:40;;;;;;;2.90;0.90;;;23.20;39.00;;;;;;4983711;28;20405;-67
2022/09/02 09:43:12;;;;;;;3.35;0.80;;;23.30;38.90;;;;;;4988611;28;20134;-67
2022/09/02 09:45:45;;;;;;;3.28;1.00;;;23.30;38.70;;;;;;4980884;28;20456;-67
2022/09/02 09:48:17;;;;;;;2.75;1.00;;;23.40;38.20;;;;;;4988215;28;20046;-67
2022/09/02 09:50:56;;;;;;;2.28;0.98;;;23.40;38.10;;;;;;4973294;28;20054;-67
2022/09/02 09:53:25;;;;;;;5.18;0.90;;;23.50;38.10;;;;;;5003485;28;20477;-67
2022/09/02 09:56:05;;;;;;;5.38;1.02;;;23.50;37.80;;;;;;4974868;28;20046;-67
2022/09/02 09:58:40;;;;;;;3.00;0.77;;;23.60;37.30;;;;;;4976610;28;20137;-67
2022/09/02 10:01:24;;;;;;;6.50;0.98;;;23.70;37.60;;;;;;4983610;28;20046;-68
2022/09/02 10:03:54;;;;;;;;;;;23.80;38.10;;;;;;4979905;28;20049;-67
2022/09/02 10:06:32;;;;;;;3.85;0.88;;;23.80;38.00;;;;;;4989439;28;20485;-67
2022/09/02 10:09:03;;;;;;;5.50;0.90;;;23.90;37.50;;;;;;4981573;28;20053;-67
2022/09/02 10:11:32;;;;;;;3.20;1.00;;;24.00;37.10;;;;;;4977091;28;21643;-67
2022/09/02 10:14:04;;;;;;;4.13;1.00;;;24.10;36.40;;;;;;4988540;28;20482;-67
2022/09/02 10:17:03;;;;;;;3.25;0.70;;;24.20;36.80;;;;;;4983883;28;20041;-67
2022/09/02 10:19:48;;;;;;;3.85;1.05;;;24.20;37.00;;;;;;4975025;28;20053;-67
2022/09/02 10:22:32;;;;;;;4.13;0.90;;;24.20;36.90;;;;;;4973884;28;20074;-67
2022/09/02 10:25:23;;;;;;;4.43;0.73;;;24.30;36.20;;;;;;4977765;28;20526;-65
2022/09/02 10:28:16;;;;;;;3.13;1.17;;;24.30;35.70;;;;;;4973059;28;20141;-65
2022/09/02 10:31:03;;;;;;;3.53;0.63;;;24.40;35.80;;;;;;4980667;28;20071;-65
2022/09/02 10:34:07;;;;;;;1.95;0.75;;;24.30;35.20;;;;;;4980078;28;20697;-65
2022/09/02 10:37:13;;;;;;;1.75;0.63;;;24.30;35.30;;;;;;4979576;28;20031;-65
2022/09/02 10:40:18;;;;;;;4.10;1.00;;;24.40;34.30;;;;;;4990095;28;20050;-65
2022/09/02 10:43:00;;;;;;;0.93;0.60;;;24.40;34.50;;;;;;4977618;28;20131;-65
2022/09/02 10:45:43;;;;;;;3.38;0.77;;;24.30;34.20;;;;;;4976715;28;20038;-65
2022/09/02 10:48:26;;;;;;;3.42;0.73;;;24.40;34.20;;;;;;4976339;28;20058;-65
2022/09/02 10:51:08;;;;;;;2.90;0.52;;;24.40;34.40;;;;;;4990415;28;20069;-65
2022/09/02 10:54:18;;;;;;;2.08;0.90;;;24.40;34.70;;;;;;4996541;28;20046;-65
2022/09/02 10:56:57;;;;;;;1.10;0.55;;;24.50;34.50;;;;;;4989074;28;20042;-65
2022/09/02 10:59:31;;;;;;;2.90;0.88;;;24.50;33.90;;;;;;4983633;28;20081;-65
2022/09/02 11:02:16;;;;;;;3.55;0.80;;;24.50;34.10;;;;;;4979473;28;20397;-65
2022/09/02 11:04:45;;;;;;;2.25;0.68;;;24.60;34.00;;;;;;4993365;28;20050;-65
2022/09/02 11:07:22;;;;;;;4.18;0.80;;;24.60;34.10;;;;;;4982800;28;20043;-65
2022/09/02 11:10:08;;;;;;;6.70;1.23;;;24.60;34.10;;;;;;4994149;28;20050;-65
2022/09/02 11:12:40;;;;;;;3.75;0.90;;;24.60;33.90;;;;;;4977438;28;20045;-64
2022/09/02 11:15:18;;;;;;;3.13;0.73;;;24.70;34.30;;;;;;4976103;28;20087;-65
2022/09/02 11:18:03;;;;;;;4.03;0.90;;;24.70;34.00;;;;;;4981188;28;20490;-65
2022/09/02 11:20:52;;;;;;;4.05;1.13;;;24.80;33.70;;;;;;4988527;28;20097;-65
2022/09/02 11:23:42;;;;;;;2.38;0.75;;;24.80;33.60;;;;;;4993520;28;20057;-65
2022/09/02 11:26:26;;;;;;;2.83;0.80;;;24.80;34.40;;;;;;4995923;28;20121;-65
2022/09/02 11:28:53;;;;;;;;;;;24.90;34.10;;;;;;4988991;28;20046;-65
2022/09/02 11:31:58;;;;;;;2.92;1.08;;;24.80;34.10;;;;;;4991927;28;20325;-64
2022/09/02 11:34:35;;;;;;;3.08;1.00;;;24.90;33.80;;;;;;4987291;28;20042;-65
2022/09/02 11:37:07;;;;;;;1.75;0.70;;;24.90;33.60;;;;;;4977287;28;20049;-64
2022/09/02 11:39:39;;;;;;;2.65;0.85;;;24.90;34.10;;;;;;4989821;28;20054;-65
2022/09/02 11:42:24;;;;;;;4.35;1.05;;;24.90;34.10;;;;;;4974615;28;20045;-65
2022/09/02 11:44:53;;;;;;;4.40;1.20;;;25.00;34.20;;;;;;4975738;28;20438;-65
2022/09/02 11:47:23;;;;;;;2.53;0.70;;;25.10;33.90;;;;;;4983273;28;20129;-65
2022/09/02 11:50:01;;;;;;;2.33;1.00;;;25.10;34.20;;;;;;4983438;28;20105;-65
2022/09/02 11:52:30;;;;;;;3.97;1.10;;;25.20;34.10;;;;;;4977716;28;20049;-65
2022/09/02 11:55:05;;;;;;;3.15;0.90;;;25.20;33.90;;;;;;4976330;28;20466;-65
2022/09/02 11:57:31;;;;;;;2.25;0.65;;;25.30;33.70;;;;;;4963043;28;20035;-65
2022/09/02 11:59:57;;;;;;;2.72;0.80;;;25.30;34.00;;;;;;4981251;28;20050;-65
2022/09/02 12:02:46;;;;;;;4.60;1.33;;;25.30;33.70;;;;;;4990232;28;20041;-66
2022/09/02 12:05:28;;;;;;;5.95;0.90;;;25.30;33.70;;;;;;4990219;28;20077;-66
2022/09/02 12:08:05;;;;;;;4.75;0.85;;;25.30;33.60;;;;;;4975966;28;20043;-66
2022/09/02 12:10:43;;;;;;;3.88;0.90;;;25.30;33.90;;;;;;4975342;28;20114;-66
2022/09/02 12:13:31;;;;;;;2.25;0.93;;;25.40;34.00;;;;;;4976134;28;20122;-66
2022/09/02 12:16:14;;;;;;;7.00;1.42;;;25.40;33.90;;;;;;4999127;28;20505;-66
2022/09/02 12:18:49;;;;;;;4.37;1.10;;;25.50;33.60;;;;;;4980612;28;20045;-66
2022/09/02 12:21:15;;;;;;;3.60;1.10;;;25.50;33.40;;;;;;4974919;28;20051;-66
2022/09/02 12:23:53;;;;;;;2.40;1.00;;;25.50;33.00;;;;;;4977277;28;20046;-66
2022/09/02 12:26:22;;;;;;;3.15;0.90;;;25.50;33.20;;;;;;4974725;28;20530;-66
2022/09/02 12:28:50;;;;;;;4.40;1.17;;;25.50;33.10;;;;;;4989057;28;20042;-64
2022/09/02 12:31:39;;;;;;;2.45;1.00;;;25.50;33.20;;;;;;4987696;28;20042;-64
2022/09/02 12:34:20;;;;;;;3.65;0.90;;;25.60;33.30;;;;;;4991705;28;20490;-63
2022/09/02 12:36:53;;;;;;;3.13;0.80;;;25.60;33.20;;;;;;4986288;28;20463;-63
2022/09/02 12:39:22;;;;;;;2.03;0.95;;;25.50;33.00;;;;;;4983904;28;20062;-63
2022/09/02 12:42:00;;;;;;;2.90;1.00;;;25.50;33.20;;;;;;4993477;28;20050;-64
2022/09/02 12:45:10;;;;;;;2.75;1.00;;;25.50;33.20;;;;;;4977611;28;20050;-64
2022/09/02 12:47:47;;;;;;;3.60;1.00;;;25.50;33.60;;;;;;4929273;29;20086;-64
2022/09/02 12:50:26;;;;;;;4.03;0.88;;;25.50;33.10;;;;;;4979160;28;20057;-64
2022/09/02 12:53:21;;;;;;;2.90;0.90;;;25.50;33.30;;;;;;4962538;28;20070;-66
2022/09/02 12:56:00;;;;;;;1.92;1.00;;;25.40;33.30;;;;;;4958367;28;20042;-67
2022/09/02 12:58:32;;;;;;;2.17;1.00;;;25.40;33.20;;;;;;4989981;28;20059;-66
2022/09/02 13:01:07;;;;;;;3.85;1.00;;;25.40;33.30;;;;;;4975286;28;20039;-66
2022/09/02 13:04:00;;;;;;;2.75;1.10;;;25.50;33.50;;;;;;4975442;28;20038;-64
2022/09/02 13:06:58;;;;;;;4.93;0.90;;;25.50;33.40;;;;;;4974421;28;20491;-63
2022/09/02 13:09:45;;;;;;;3.95;0.70;;;25.60;33.40;;;;;;4973308;28;20090;-63